This is the latest recevied weather packets stored in our database for station/object DJ3LE. If no packets are shown the sender has not sent any weather packets the latest 10 day(s).
| Time | Temp. | Humidity | Pressure | Rain* | Wind** | Luminosity | Snow |
|---|---|---|---|---|---|---|---|
| 1777951941 | 3.89° C | 92% | 1011.2 hPa | - | - | 0 W/m² | - |
| 1777938440 | 5° C | 88% | 1012.1 hPa | - | - | 0 W/m² | - |
| 1777933940 | 6.11° C | 86% | 1012.2 hPa | - | - | 0 W/m² | - |
| 1777929439 | 7.22° C | 87% | 1012.5 hPa | - | - | 0 W/m² | - |
| 1777924939 | 8.33° C | 83% | 1012.4 hPa | - | - | 0 W/m² | - |
| 1777915044 | 13.89° C | 71% | 1011.8 hPa | - | - | 111 W/m² | - |
| 1777913243 | 14.44° C | 70% | 1011.6 hPa | - | - | 214 W/m² | - |
| 1777909643 | 15° C | 71% | 1011.7 hPa | - | - | 429 W/m² | - |
| 1777906043 | 16.11° C | 64% | 1011.8 hPa | - | - | 318 W/m² | - |
| 1777903344 | 16.11° C | 64% | 1011.9 hPa | - | - | 645 W/m² | - |
| 1777901543 | 15.56° C | 68% | 1012.1 hPa | - | - | 696 W/m² | - |
| 1777888043 | 13.89° C | 78% | 1011.8 hPa | - | - | 239 W/m² | - |
| 1777886242 | 13.33° C | 79% | 1011.4 hPa | - | - | 504 W/m² | - |
| 1777881741 | 12.22° C | 82% | 1011.1 hPa | - | - | 540 W/m² | - |
| 1777870941 | 10.56° C | 93% | 1009.1 hPa | - | - | 44 W/m² | - |
| 1777852039 | 13.33° C | 93% | 1006.8 hPa | - | - | 0 W/m² | - |
| 1777847539 | 13.89° C | 93% | 1007.1 hPa | - | - | 0 W/m² | - |
| 1777833138 | 14.44° C | 90% | 1006.4 hPa | - | - | 0 W/m² | - |
| 1777825942 | 18.33° C | 73% | 1006 hPa | - | - | 25 W/m² | - |
| 1777813341 | 20.56° C | 70% | 1008.6 hPa | - | - | 352 W/m² | - |
| 1777804341 | 17.22° C | 79% | 1010 hPa | - | - | 353 W/m² | - |
| 1777799840 | 14.44° C | 89% | 1010.5 hPa | - | - | 202 W/m² | - |
| 1777795340 | 12.22° C | 95% | 1010.4 hPa | - | - | 236 W/m² | - |
| 1777780039 | 10.56° C | 94% | 1010.6 hPa | - | - | 0 W/m² | - |
| 1777773739 | 10° C | 92% | 1011.3 hPa | - | - | 0 W/m² | - |
* Rain since midnight (hover to see other rain measurements)
** Current wind speed in m/s (hover to see current wind gust speed)